Time;durP1;ratioP1;P1;durP2;ratioP2;P2;SDS_P1;SDS_P2;PMS_P1;PMS_P2;Temp;Humidity;BMP_temperature;BMP_pressure;BME280_temperature;BME280_humidity;BME280_pressure;Samples;Min_cycle;Max_cycle;Signal;HPM_P1;HPM_P2
2022/02/03 00:02:32;;;;;;;19.83;11.50;;;;;;;9.10;77.01;100783.34;5033741;28;20045;-56
2022/02/03 00:05:09;;;;;;;19.25;11.43;;;;;;;9.13;76.94;100778.03;5051431;28;20049;-56
2022/02/03 00:07:51;;;;;;;16.98;10.20;;;;;;;9.01;77.17;100768.44;5052173;28;20053;-55
2022/02/03 00:10:42;;;;;;;18.02;10.82;;;;;;;9.10;77.00;100755.56;5051392;28;20053;-58
2022/02/03 00:16:44;;;;;;;18.13;11.63;;;;;;;9.14;76.69;100762.19;5054072;28;20075;-56
2022/02/03 00:22:15;;;;;;;14.23;9.73;;;;;;;9.09;77.44;100753.91;5052316;28;20072;-58
2022/02/03 00:24:57;;;;;;;12.80;8.95;;;;;;;9.05;77.62;100755.63;5046745;28;20489;-59
2022/02/03 00:27:44;;;;;;;15.65;9.45;;;;;;;8.97;77.74;100767.41;5051264;28;20486;-54
2022/02/03 00:30:14;;;;;;;14.68;8.80;;;;;;;9.09;77.29;100751.97;5052078;28;20051;-52
2022/02/03 00:32:54;;;;;;;12.60;8.90;;;;;;;9.00;77.69;100756.50;5051850;28;20045;-54
2022/02/03 00:35:34;;;;;;;13.73;8.18;;;;;;;8.83;78.42;100750.63;5052241;28;20064;-53
2022/02/03 00:38:20;;;;;;;10.10;7.10;;;;;;;9.05;78.07;100752.84;5046654;28;20050;-54
2022/02/03 00:49:08;;;;;;;13.27;8.63;;;;;;;9.01;78.86;100746.22;5051343;28;20501;-56
2022/02/03 00:51:36;;;;;;;12.80;8.23;;;;;;;9.08;78.36;100739.19;5052337;28;20056;-56
2022/02/03 00:54:09;;;;;;;11.20;7.03;;;;;;;9.22;78.30;100741.22;5046172;28;20049;-58
2022/02/03 00:56:40;;;;;;;12.75;8.38;;;;;;;8.99;79.21;100740.13;5032344;28;20060;-55
2022/02/03 00:59:10;;;;;;;10.77;7.63;;;;;;;9.05;78.77;100730.63;5044185;28;20052;-57
2022/02/03 01:01:40;;;;;;;13.43;8.57;;;;;;;9.09;78.96;100734.44;5050801;28;20044;-60
2022/02/03 01:04:10;;;;;;;12.18;8.32;;;;;;;9.08;79.38;100736.41;5051023;28;20060;-59
2022/02/03 01:06:46;;;;;;;12.63;8.38;;;;;;;8.97;79.80;100731.31;5051857;28;20060;-53
2022/02/03 01:09:18;;;;;;;12.07;8.55;;;;;;;9.02;80.09;100742.34;5043304;28;20516;-55
2022/02/03 01:11:49;;;;;;;15.70;9.75;;;;;;;9.02;79.97;100739.56;5056469;28;20045;-53
2022/02/03 01:14:22;;;;;;;13.32;8.23;;;;;;;9.17;79.41;100739.34;5055000;28;20060;-52
2022/02/03 01:17:14;;;;;;;10.48;7.68;;;;;;;9.10;80.05;100738.91;5055622;28;20053;-56
2022/02/03 01:20:16;;;;;;;12.65;8.93;;;;;;;8.99;80.65;100732.66;5055374;28;20402;-57
2022/02/03 01:34:09;;;;;;;13.23;9.13;;;;;;;9.39;79.68;100729.63;5043755;28;20068;-58
2022/02/03 01:37:11;;;;;;;15.50;10.88;;;;;;;9.26;80.61;100726.44;5054637;28;20056;-58
2022/02/03 01:45:38;;;;;;;15.13;9.73;;;;;;;9.34;80.77;100717.44;5038424;28;20056;-58
2022/02/03 01:48:20;;;;;;;15.77;10.25;;;;;;;9.42;80.92;100713.16;5054558;28;20052;-55
2022/02/03 01:53:35;;;;;;;15.50;9.30;;;;;;;9.37;80.94;100710.44;5038100;28;20065;-58
2022/02/03 01:56:05;;;;;;;12.95;8.95;;;;;;;9.38;81.04;100706.53;5054513;28;20051;-57
2022/02/03 01:58:44;;;;;;;13.43;9.30;;;;;;;9.44;80.46;100705.31;5048548;28;20482;-58
2022/02/03 02:01:14;;;;;;;12.65;8.85;;;;;;;9.60;79.92;100696.78;5054509;28;20056;-56
2022/02/03 02:03:47;;;;;;;13.60;8.77;;;;;;;9.47;80.80;100709.44;5054886;28;20057;-57
2022/02/03 02:06:55;;;;;;;14.80;9.18;;;;;;;9.50;80.32;100700.53;5053891;28;20075;-56
2022/02/03 02:09:38;;;;;;;10.82;7.35;;;;;;;9.50;80.40;100692.19;5029876;28;20064;-56
2022/02/03 02:12:21;;;;;;;13.15;8.18;;;;;;;9.42;80.79;100692.84;5053249;28;20501;-57
2022/02/03 02:37:56;;;;;;;9.05;6.47;;;;;;;9.45;81.53;100681.13;5044238;28;20060;-57
2022/02/03 02:43:32;;;;;;;9.90;6.13;;;;;;;9.49;81.65;100662.72;5043144;28;20049;-56
2022/02/03 02:46:03;;;;;;;10.18;6.90;;;;;;;9.64;81.05;100667.19;5041646;28;20060;-56
2022/02/03 02:48:45;;;;;;;9.38;7.03;;;;;;;9.59;81.06;100661.72;5053604;28;20049;-55
2022/02/03 02:51:20;;;;;;;12.98;8.55;;;;;;;9.47;81.56;100660.25;5053828;28;20064;-56
2022/02/03 02:54:21;;;;;;;13.23;8.13;;;;;;;9.58;81.55;100660.09;5053359;28;20067;-57
2022/02/03 02:57:07;;;;;;;12.50;8.63;;;;;;;9.52;82.18;100657.38;5051378;28;20076;-58
2022/02/03 03:00:21;;;;;;;15.25;9.95;;;;;;;9.50;82.56;100653.25;5053497;28;20056;-59
2022/02/03 03:30:55;;;;;;;21.98;15.85;;;;;;;9.77;81.90;100615.53;5053812;28;20402;-56
2022/02/03 03:33:31;;;;;;;18.58;13.43;;;;;;;9.80;81.83;100617.69;5051925;28;20052;-57
2022/02/03 03:36:01;;;;;;;19.55;13.80;;;;;;;9.73;81.97;100610.56;5053008;28;20072;-59
2022/02/03 03:38:31;;;;;;;19.45;14.02;;;;;;;9.78;82.19;100603.28;5053107;28;20525;-59
2022/02/03 03:41:03;;;;;;;19.98;14.10;;;;;;;9.66;82.66;100612.09;5053256;28;20060;-57
2022/02/03 03:43:35;;;;;;;21.08;13.95;;;;;;;9.83;81.81;100611.53;5053053;28;20045;-55
2022/02/03 03:46:09;;;;;;;20.73;14.75;;;;;;;9.85;81.20;100618.44;5053638;28;20478;-58
2022/02/03 03:48:50;;;;;;;20.13;14.45;;;;;;;9.78;81.47;100612.44;5033250;28;20482;-59
2022/02/03 03:51:22;;;;;;;20.10;14.45;;;;;;;9.80;81.96;100621.31;5035614;28;20052;-59
2022/02/03 03:54:03;;;;;;;19.30;13.20;;;;;;;9.86;81.90;100622.88;5050855;28;20049;-59
2022/02/03 03:56:42;;;;;;;18.80;13.50;;;;;;;9.89;81.86;100619.50;5050238;28;20057;-56
2022/02/03 03:59:48;;;;;;;19.35;13.05;;;;;;;9.70;82.41;100618.69;5050144;28;20482;-58
2022/02/03 04:43:25;;;;;;;26.08;17.27;;;;;;;9.67;81.41;100550.59;5066335;28;20067;-60
2022/02/03 04:55:30;;;;;;;30.30;19.45;;;;;;;9.51;82.43;100532.53;5079929;28;20068;-58
2022/02/03 05:01:25;;;;;;;28.27;19.77;;;;;;;9.63;81.96;100524.53;5074500;28;20063;-60
2022/02/03 05:04:15;;;;;;;29.63;19.90;;;;;;;9.55;81.98;100523.31;5083207;28;20052;-60
2022/02/03 05:07:13;;;;;;;27.27;17.70;;;;;;;9.71;81.20;100534.16;5089545;28;20114;-59
2022/02/03 05:10:07;;;;;;;26.70;18.42;;;;;;;9.50;81.63;100528.94;5084709;28;20485;-60
2022/02/03 05:13:00;;;;;;;24.65;17.75;;;;;;;9.64;81.05;100533.69;5068728;28;20478;-59
2022/02/03 05:15:51;;;;;;;21.05;16.08;;;;;;;9.80;80.54;100537.03;5077558;28;20055;-58
2022/02/03 05:19:02;;;;;;;24.50;17.02;;;;;;;9.75;80.24;100544.34;5088637;28;20055;-59
2022/02/03 05:25:50;;;;;;;17.42;13.85;;;;;;;9.72;80.36;100519.94;5013076;28;20057;-60
2022/02/03 05:32:22;;;;;;;16.73;12.25;;;;;;;9.64;79.58;100514.22;5032764;28;20565;-58
2022/02/03 05:44:20;;;;;;;12.20;9.27;;;;;;;9.63;77.90;100513.41;5072473;28;20063;-60
2022/02/03 05:47:12;;;;;;;12.55;9.65;;;;;;;9.54;78.51;100506.94;5069326;28;20405;-60
2022/02/03 05:52:42;;;;;;;13.30;9.68;;;;;;;9.40;78.53;100497.72;5057258;28;20057;-60
2022/02/03 06:01:09;;;;;;;12.00;10.00;;;;;;;9.43;78.84;100509.06;5060420;28;20056;-60
2022/02/03 06:04:03;;;;;;;13.00;9.95;;;;;;;9.37;78.63;100499.19;5055104;28;20060;-60
2022/02/03 06:06:49;;;;;;;16.38;10.82;;;;;;;9.47;78.14;100503.69;5055547;28;20441;-60
2022/02/03 06:09:28;;;;;;;11.93;9.45;;;;;;;9.35;78.29;100505.03;5064639;28;20052;-60
2022/02/03 06:14:59;;;;;;;12.98;9.52;;;;;;;9.40;78.06;100497.72;5032235;28;20053;-60
2022/02/03 06:17:35;;;;;;;12.60;10.27;;;;;;;9.27;78.44;100508.50;5054630;28;20056;-60
2022/02/03 06:22:53;;;;;;;15.00;10.35;;;;;;;9.33;77.92;100492.56;5066249;28;20064;-59
2022/02/03 06:28:05;;;;;;;14.52;10.45;;;;;;;9.23;78.60;100478.84;5059059;28;20060;-59
2022/02/03 06:30:34;;;;;;;12.93;10.55;;;;;;;9.34;77.91;100483.94;5059582;28;20071;-59
2022/02/03 06:33:01;;;;;;;13.27;10.35;;;;;;;9.41;77.56;100491.03;5061248;28;20478;-58
2022/02/03 06:35:29;;;;;;;12.20;10.02;;;;;;;9.19;77.98;100486.16;5063335;28;20481;-59
2022/02/03 06:37:56;;;;;;;14.70;10.63;;;;;;;9.28;78.06;100484.31;5069224;28;20048;-60
2022/02/03 06:40:24;;;;;;;11.70;9.25;;;;;;;9.33;77.73;100487.03;5071426;28;20056;-57
2022/02/03 06:42:55;;;;;;;12.63;9.23;;;;;;;9.18;77.88;100479.78;5053493;28;20056;-60
2022/02/03 06:45:34;;;;;;;14.40;9.38;;;;;;;9.37;77.59;100484.47;5062540;28;20052;-60
2022/02/03 06:48:07;;;;;;;12.70;9.95;;;;;;;9.43;77.03;100486.84;5062315;28;20106;-60
2022/02/03 06:50:39;;;;;;;10.43;8.73;;;;;;;9.37;77.61;100487.25;5068021;28;20049;-60
2022/02/03 06:53:11;;;;;;;13.23;9.75;;;;;;;9.43;77.07;100485.97;5052693;28;20052;-60
2022/02/03 06:55:46;;;;;;;11.38;8.88;;;;;;;9.15;78.65;100483.16;5053352;28;20501;-60
2022/02/03 06:58:19;;;;;;;12.68;9.20;;;;;;;9.30;77.53;100493.16;5055546;28;20044;-60
2022/02/03 07:00:57;;;;;;;11.10;8.60;;;;;;;9.18;78.07;100493.69;5061036;28;20387;-60
2022/02/03 07:03:30;;;;;;;11.40;9.10;;;;;;;9.33;77.49;100493.41;5058802;28;20049;-60
2022/02/03 07:05:58;;;;;;;11.25;8.43;;;;;;;9.27;77.51;100483.50;5066225;28;20512;-60
2022/02/03 07:08:26;;;;;;;12.23;9.20;;;;;;;9.16;77.87;100475.66;5054049;28;20064;-60
2022/02/03 07:10:55;;;;;;;12.88;10.40;;;;;;;9.31;78.19;100480.94;5065083;28;20092;-57
2022/02/03 07:13:22;;;;;;;13.53;9.30;;;;;;;9.38;77.67;100477.75;5052975;28;20481;-59
2022/02/03 07:15:50;;;;;;;28.88;17.95;;;;;;;9.29;77.85;100474.84;5053247;28;20414;-59
2022/02/03 07:18:18;;;;;;;25.10;15.65;;;;;;;9.41;77.96;100477.97;5053307;28;20045;-58
2022/02/03 07:20:47;;;;;;;18.40;11.00;;;;;;;9.49;77.44;100473.63;5061777;28;20053;-58
2022/02/03 07:23:15;;;;;;;33.55;18.90;;;;;;;9.07;80.71;100476.34;5058812;28;20052;-40
2022/02/03 07:25:43;;;;;;;37.95;22.48;;;;;;;9.27;79.70;100466.81;5055783;28;20057;-58
2022/02/03 07:28:12;;;;;;;25.75;15.25;;;;;;;9.34;78.55;100467.25;5053459;28;20055;-59
2022/02/03 07:30:40;;;;;;;39.40;21.20;;;;;;;9.43;78.50;100464.59;5062155;28;20048;-56
2022/02/03 07:33:08;;;;;;;18.42;12.13;;;;;;;9.37;77.99;100456.66;5067433;28;20067;-59
2022/02/03 07:35:37;;;;;;;20.15;13.32;;;;;;;9.20;79.08;100452.50;5067268;28;20048;-59
2022/02/03 07:38:14;;;;;;;23.52;13.82;;;;;;;9.19;79.35;100452.81;5059348;28;20048;-59
2022/02/03 07:40:42;;;;;;;21.73;13.00;;;;;;;9.37;78.47;100459.44;5057201;28;20055;-59
2022/02/03 07:43:11;;;;;;;20.05;13.00;;;;;;;9.44;77.87;100469.00;5057928;28;20060;-58
2022/02/03 07:45:39;;;;;;;14.10;9.93;;;;;;;9.38;78.08;100473.00;5065124;28;20056;-59
2022/02/03 07:48:06;;;;;;;13.32;9.82;;;;;;;9.18;79.63;100457.53;5051343;28;20048;-59
2022/02/03 07:50:34;;;;;;;14.73;10.88;;;;;;;9.03;80.49;100460.56;5061007;28;20068;-59
2022/02/03 07:53:01;;;;;;;11.00;8.77;;;;;;;9.24;79.94;100439.66;5064761;28;20068;-59
2022/02/03 07:55:30;;;;;;;12.05;9.63;;;;;;;9.27;79.49;100450.13;5062194;28;20418;-59
2022/02/03 07:57:57;;;;;;;11.38;9.32;;;;;;;9.41;79.01;100443.78;5069343;28;20048;-59
2022/02/03 08:00:25;;;;;;;10.48;8.98;;;;;;;9.48;78.88;100444.19;5059135;28;20041;-60
2022/02/03 08:02:53;;;;;;;13.25;10.02;;;;;;;9.31;79.08;100442.84;5068831;28;20450;-60
2022/02/03 08:05:21;;;;;;;14.73;9.80;;;;;;;9.36;79.25;100441.91;5052854;28;20048;-59
2022/02/03 08:07:55;;;;;;;10.93;8.30;;;;;;;9.37;79.18;100438.03;5070138;28;20106;-59
2022/02/03 08:10:36;;;;;;;9.65;7.95;;;;;;;9.45;78.93;100431.75;5065329;28;20040;-59
2022/02/03 08:13:07;;;;;;;12.13;8.90;;;;;;;9.60;79.01;100424.25;5070821;28;20060;-60
2022/02/03 08:15:37;;;;;;;9.57;8.07;;;;;;;9.66;78.70;100423.81;5057608;28;20048;-59
2022/02/03 08:18:10;;;;;;;11.52;8.38;;;;;;;9.69;78.85;100433.50;5069087;28;20056;-60
2022/02/03 08:20:43;;;;;;;9.55;7.82;;;;;;;9.63;78.45;100445.84;5061472;28;20174;-60
2022/02/03 08:23:29;;;;;;;9.75;7.75;;;;;;;9.67;78.10;100444.94;5062978;28;20056;-59
2022/02/03 08:26:04;;;;;;;9.63;7.07;;;;;;;9.67;78.66;100430.19;5053876;28;20045;-60
2022/02/03 08:28:44;;;;;;;10.05;7.70;;;;;;;9.71;78.20;100426.47;5051652;28;20057;-60
2022/02/03 08:31:21;;;;;;;9.43;7.68;;;;;;;9.58;78.78;100424.53;5070308;28;20052;-58
2022/02/03 08:33:52;;;;;;;8.90;6.47;;;;;;;9.69;78.21;100417.63;5068873;28;20056;-59
2022/02/03 08:36:20;;;;;;;9.75;6.82;;;;;;;9.68;78.17;100404.88;5062807;28;20048;-59
2022/02/03 08:38:52;;;;;;;8.90;6.68;;;;;;;9.49;79.05;100406.91;5066323;28;20061;-60
2022/02/03 08:41:21;;;;;;;7.95;5.78;;;;;;;9.65;78.20;100396.31;5057867;28;20049;-60
2022/02/03 08:43:50;;;;;;;8.95;6.55;;;;;;;9.55;78.81;100375.09;5066805;28;20059;-60
2022/02/03 08:46:17;;;;;;;9.95;6.72;;;;;;;9.72;78.19;100371.69;5070235;28;20808;-59
2022/02/03 08:48:44;;;;;;;9.05;7.30;;;;;;;9.77;78.27;100359.63;5067033;28;20059;-60
2022/02/03 08:51:13;;;;;;;10.68;7.07;;;;;;;9.80;77.83;100359.00;5067345;28;20044;-60
2022/02/03 08:53:44;;;;;;;10.38;7.53;;;;;;;9.83;78.03;100347.25;5064125;28;20056;-59
2022/02/03 08:56:25;;;;;;;10.52;6.85;;;;;;;9.87;77.91;100343.53;5063922;28;20053;-59
2022/02/03 09:57:04;;;;;;;9.73;7.75;;;;;;;10.21;76.58;100369.22;5065158;28;20052;-60
2022/02/03 09:59:39;;;;;;;9.02;7.68;;;;;;;10.10;76.72;100363.88;5055904;28;20052;-60
2022/02/03 10:02:11;;;;;;;8.77;6.40;;;;;;;9.97;77.31;100356.38;5063077;28;20048;-60
2022/02/03 10:04:48;;;;;;;11.05;7.53;;;;;;;9.92;77.59;100346.19;5055700;28;20064;-60
2022/02/03 10:07:21;;;;;;;10.82;7.75;;;;;;;10.04;76.59;100350.41;5055884;28;20402;-60
2022/02/03 10:09:50;;;;;;;8.43;6.45;;;;;;;10.03;76.97;100340.41;5053123;28;20053;-60
2022/02/03 10:12:18;;;;;;;9.38;7.38;;;;;;;9.96;77.98;100338.06;5062687;28;20067;-60
2022/02/03 10:14:49;;;;;;;11.18;8.00;;;;;;;9.84;78.04;100335.00;5070769;28;20052;-60
2022/02/03 10:17:19;;;;;;;9.65;7.35;;;;;;;9.87;78.43;100331.56;5062863;28;20055;-60
2022/02/03 10:19:59;;;;;;;;;;;;;;;10.03;77.93;100337.63;5059044;28;20055;-60
2022/02/03 10:22:27;;;;;;;13.13;8.55;;;;;;;9.98;77.68;100329.41;5069623;28;19921;-55
2022/02/03 10:25:08;;;;;;;12.20;10.63;;;;;;;10.02;77.97;100322.88;5052921;28;20057;-60
2022/02/03 10:27:38;;;;;;;10.43;8.10;;;;;;;9.87;78.92;100309.31;5059965;28;20049;-59
2022/02/03 10:30:26;;;;;;;;;;;;;;;9.87;77.91;100312.94;5068978;28;20052;-60
2022/02/03 10:32:54;;;;;;;10.18;8.05;;;;;;;9.64;79.51;100298.16;5063421;28;19927;-60
2022/02/03 10:35:32;;;;;;;11.15;8.00;;;;;;;9.88;78.58;100300.66;5068044;28;20059;-60
2022/02/03 10:38:39;;;;;;;12.60;9.73;;;;;;;9.91;78.31;100283.34;5057175;28;20068;-60
2022/02/03 10:47:00;;;;;;;10.75;8.30;;;;;;;10.11;78.09;100282.03;5040293;28;20052;-58
2022/02/03 10:55:29;;;;;;;9.93;7.72;;;;;;;10.24;76.95;100279.50;5117652;27;20116;-60
2022/02/03 10:58:14;;;;;;;10.00;7.82;;;;;;;10.34;76.79;100288.44;5085085;28;20063;-61
2022/02/03 11:03:55;;;;;;;10.68;7.45;;;;;;;10.47;76.03;100286.72;5055973;28;20056;-59
2022/02/03 11:06:28;;;;;;;9.00;6.97;;;;;;;10.45;76.12;100283.41;5095215;28;20052;-59
2022/02/03 11:09:06;;;;;;;9.52;7.28;;;;;;;10.44;76.59;100276.22;5100182;28;20059;-59
2022/02/03 11:11:38;;;;;;;9.13;7.28;;;;;;;10.48;75.98;100271.66;5090022;28;20062;-62
2022/02/03 11:14:06;;;;;;;10.13;7.75;;;;;;;10.46;75.92;100273.94;5089522;28;20049;-62
2022/02/03 11:16:38;;;;;;;7.78;6.57;;;;;;;10.40;74.47;100261.28;5092649;28;20403;-59
2022/02/03 11:19:11;;;;;;;7.72;6.57;;;;;;;10.30;74.13;100256.81;5097362;28;20115;-58
2022/02/03 11:21:40;;;;;;;7.05;5.93;;;;;;;10.04;74.45;100245.47;5105601;28;20489;-60
2022/02/03 11:24:15;;;;;;;8.85;6.25;;;;;;;10.02;74.74;100242.19;5093151;28;20366;-60
2022/02/03 11:27:00;;;;;;;11.38;7.53;;;;;;;10.06;74.25;100240.41;5090009;28;20056;-60
2022/02/03 11:30:10;;;;;;;8.75;7.35;;;;;;;10.02;74.34;100250.53;5087055;28;20697;-60
2022/02/03 11:38:43;;;;;;;8.48;6.95;;;;;;;9.62;75.08;100228.13;5100936;28;20044;-60
2022/02/03 11:44:33;;;;;;;10.50;8.32;;;;;;;9.57;74.74;100225.44;5077152;28;20045;-60
2022/02/03 11:47:31;;;;;;;10.95;8.90;;;;;;;9.46;74.95;100238.78;5101635;28;20538;-60
2022/02/03 11:53:09;;;;;;;9.93;8.38;;;;;;;9.11;75.31;100227.31;5086780;28;20060;-58
2022/02/03 12:01:31;;;;;;;11.48;8.57;;;;;;;9.13;74.75;100227.84;5092485;28;20161;-60
2022/02/03 12:04:28;;;;;;;11.32;9.02;;;;;;;9.11;75.59;100234.81;5080867;28;20059;-60
2022/02/03 12:15:51;;;;;;;15.48;9.82;;;;;;;9.05;74.62;100236.06;5057173;28;20067;-60
2022/02/03 12:21:27;;;;;;;13.55;8.57;;;;;;;8.97;74.57;100231.25;5061545;28;20060;-60
2022/02/03 12:24:14;;;;;;;;;;;;;;;8.89;74.37;100228.03;5070777;28;20063;-60
2022/02/03 12:26:46;;;;;;;10.20;7.90;;;;;;;9.03;73.43;100221.66;5061833;28;19927;-62
2022/02/03 12:29:17;;;;;;;11.00;8.10;;;;;;;9.19;73.03;100211.03;5063752;28;20063;-60
2022/02/03 12:32:02;;;;;;;11.00;7.40;;;;;;;9.03;73.40;100208.59;5066899;28;20049;-58
2022/02/03 12:37:38;;;;;;;8.70;7.15;;;;;;;9.08;72.45;100208.47;5061334;28;20060;-60
2022/02/03 12:40:18;;;;;;;7.97;6.65;;;;;;;9.09;72.27;100214.84;5067604;28;20059;-60
2022/02/03 12:42:54;;;;;;;8.60;6.60;;;;;;;9.11;71.74;100212.59;5071247;28;20451;-60
2022/02/03 12:45:27;;;;;;;7.10;6.22;;;;;;;9.30;70.18;100204.97;5053976;28;20048;-59
2022/02/03 12:47:56;;;;;;;8.00;6.07;;;;;;;9.33;70.42;100197.94;5054203;28;20056;-59
2022/02/03 12:50:27;;;;;;;8.63;6.10;;;;;;;9.18;70.41;100204.66;5078075;28;20409;-60
2022/02/03 12:52:55;;;;;;;8.85;5.13;;;;;;;9.23;69.62;100203.72;5065402;28;20055;-57
2022/02/03 12:55:35;;;;;;;7.32;5.55;;;;;;;9.25;69.32;100195.91;5069159;28;20063;-59
2022/02/03 12:58:05;;;;;;;8.25;5.03;;;;;;;9.15;69.65;100183.03;5070908;28;20048;-60
2022/02/03 13:00:41;;;;;;;6.50;4.35;;;;;;;9.22;68.87;100188.16;5071603;28;20064;-57
2022/02/03 13:03:11;;;;;;;6.55;4.80;;;;;;;9.06;68.75;100182.97;5074655;28;20055;-59
2022/02/03 13:05:42;;;;;;;7.82;4.50;;;;;;;9.19;68.31;100186.84;5084685;28;20051;-59
2022/02/03 13:08:12;;;;;;;7.05;5.07;;;;;;;9.03;68.68;100175.25;5072759;28;20056;-60
2022/02/03 13:10:41;;;;;;;7.10;4.50;;;;;;;8.90;69.42;100171.38;5077324;28;20389;-60
2022/02/03 13:13:19;;;;;;;6.28;4.55;;;;;;;8.97;68.93;100153.47;5071789;28;20056;-59
2022/02/03 13:15:46;;;;;;;7.18;5.35;;;;;;;9.14;68.59;100135.00;5071243;28;20044;-60
2022/02/03 13:18:20;;;;;;;6.65;4.68;;;;;;;9.18;67.82;100131.59;5070757;28;20067;-59
2022/02/03 13:20:59;;;;;;;7.55;5.25;;;;;;;9.18;67.43;100131.59;5064644;28;20048;-60
2022/02/03 13:23:29;;;;;;;5.63;4.25;;;;;;;9.05;67.76;100125.78;5070847;28;20488;-60
2022/02/03 13:26:08;;;;;;;6.00;4.70;;;;;;;9.02;68.34;100129.16;5085404;28;20059;-60
2022/02/03 13:28:42;;;;;;;7.00;4.10;;;;;;;9.11;67.50;100123.69;5080165;28;20059;-60
2022/02/03 13:31:28;;;;;;;6.05;4.30;;;;;;;9.10;67.70;100122.84;5070163;28;20486;-60
2022/02/03 13:34:13;;;;;;;6.40;3.95;;;;;;;9.44;66.90;100117.91;5056330;28;20061;-59
2022/02/03 13:36:47;;;;;;;8.10;4.95;;;;;;;9.25;66.43;100123.66;5081915;28;20052;-60
2022/02/03 13:39:25;;;;;;;6.90;4.55;;;;;;;9.16;67.00;100119.97;5079556;28;20056;-61
2022/02/03 13:42:03;;;;;;;6.18;4.55;;;;;;;9.20;66.78;100110.69;5073671;28;20516;-60
2022/02/03 13:44:31;;;;;;;9.07;5.22;;;;;;;9.08;67.19;100111.25;5072670;28;20060;-60
2022/02/03 13:46:58;;;;;;;5.95;4.28;;;;;;;9.09;67.27;100114.84;5071890;28;20397;-60
2022/02/03 13:49:28;;;;;;;8.00;5.03;;;;;;;9.02;67.72;100122.78;5080720;28;20384;-59
2022/02/03 13:52:04;;;;;;;6.60;5.07;;;;;;;8.89;67.39;100122.50;5071897;28;20053;-59
2022/02/03 14:20:04;;;;;;;7.45;5.60;;;;;;;8.96;67.46;100101.81;5033500;28;20056;-60
2022/02/03 14:22:54;;;;;;;6.72;4.97;;;;;;;8.80;67.69;100113.28;5076547;28;20056;-60
2022/02/03 14:28:06;;;;;;;8.32;6.13;;;;;;;8.98;67.02;100094.00;5073995;28;20059;-59
2022/02/03 14:30:37;;;;;;;7.43;6.07;;;;;;;8.84;68.12;100100.41;5072012;28;20059;-60
2022/02/03 14:33:05;;;;;;;7.38;6.22;;;;;;;9.03;67.46;100097.47;5071262;28;20064;-62
2022/02/03 14:35:32;;;;;;;7.53;6.60;;;;;;;8.94;67.41;100094.63;5071637;28;20075;-59
2022/02/03 14:38:11;;;;;;;7.63;5.85;;;;;;;8.98;66.77;100094.00;5071775;28;20057;-59
2022/02/03 14:40:52;;;;;;;7.57;6.18;;;;;;;8.82;68.09;100097.13;5072768;28;20485;-60
2022/02/03 14:43:19;;;;;;;8.45;6.47;;;;;;;8.94;67.25;100096.56;5089622;28;20059;-61
2022/02/03 14:45:47;;;;;;;8.23;6.28;;;;;;;8.97;67.73;100084.84;5079390;28;20059;-60
2022/02/03 14:48:14;;;;;;;8.32;6.85;;;;;;;9.04;67.53;100081.63;5070986;28;20060;-60
2022/02/03 14:50:42;;;;;;;7.05;6.35;;;;;;;8.91;67.51;100086.09;5071608;28;20048;-59
2022/02/03 14:53:18;;;;;;;8.95;6.45;;;;;;;8.88;67.93;100086.69;5070829;28;20061;-60
2022/02/03 14:58:43;;;;;;;11.68;6.40;;;;;;;8.84;67.74;100072.63;5029188;28;20549;-61
2022/02/03 15:01:12;;;;;;;7.53;6.15;;;;;;;8.87;67.83;100063.66;5056807;28;20059;-60
2022/02/03 15:03:42;;;;;;;8.10;6.15;;;;;;;8.84;67.38;100057.91;5072499;28;20044;-60
2022/02/03 15:06:12;;;;;;;8.07;5.53;;;;;;;9.01;66.68;100051.69;5071680;28;20416;-60
2022/02/03 15:08:56;;;;;;;;;;;;;;;8.63;67.73;100055.63;5070054;28;20064;-60
2022/02/03 15:11:40;;;;;;;9.27;5.13;;;;;;;8.68;67.91;100052.72;5077367;28;19928;-60
2022/02/03 15:14:07;;;;;;;8.90;5.60;;;;;;;8.69;68.35;100054.38;5071738;28;20051;-61
2022/02/03 15:16:34;;;;;;;7.40;5.43;;;;;;;8.40;69.06;100068.56;5072722;28;20063;-57
2022/02/03 15:19:01;;;;;;;6.53;5.00;;;;;;;8.66;67.71;100049.44;5073842;28;20055;-60
2022/02/03 15:21:29;;;;;;;5.60;4.40;;;;;;;8.35;69.46;100052.00;5072856;28;21033;-60
2022/02/03 15:23:56;;;;;;;5.78;4.80;;;;;;;8.65;68.32;100044.19;5081083;28;20049;-60
2022/02/03 15:26:25;;;;;;;6.57;5.30;;;;;;;8.49;68.80;100036.19;5071574;28;20055;-58
2022/02/03 15:28:54;;;;;;;6.28;4.97;;;;;;;8.50;68.93;100032.31;5077466;28;20052;-60
2022/02/03 15:31:23;;;;;;;6.32;4.90;;;;;;;8.71;68.20;100024.34;5072343;28;20056;-61
2022/02/03 15:33:56;;;;;;;6.95;4.97;;;;;;;8.74;68.17;100029.25;5058025;28;20049;-60
2022/02/03 15:36:24;;;;;;;5.88;4.88;;;;;;;8.63;67.82;100032.56;5071267;28;20060;-60
2022/02/03 15:38:54;;;;;;;7.40;5.38;;;;;;;8.38;68.89;100031.97;5072251;28;20063;-60
2022/02/03 15:41:27;;;;;;;7.53;5.55;;;;;;;8.34;69.27;100028.19;5090706;28;20052;-61
2022/02/03 15:43:59;;;;;;;7.40;5.70;;;;;;;8.24;69.24;100033.94;5073877;28;20404;-60
2022/02/03 15:46:29;;;;;;;5.70;5.00;;;;;;;8.28;69.10;100024.69;5074041;28;20413;-61
2022/02/03 15:49:04;;;;;;;;;;;;;;;8.29;68.60;100018.03;5061133;28;20053;-60
2022/02/03 15:57:18;;;;;;;7.07;6.05;;;;;;;8.34;69.10;100008.75;5077389;28;20055;-63
2022/02/03 16:02:49;;;;;;;7.03;6.03;;;;;;;8.22;69.56;100009.28;5070263;28;20053;-62
2022/02/03 16:19:04;;;;;;;8.05;7.25;;;;;;;8.32;69.38;100022.13;5049618;28;20053;-61
2022/02/03 16:21:37;;;;;;;8.43;6.75;;;;;;;8.28;69.75;100021.09;5073092;28;20045;-63
2022/02/03 16:24:24;;;;;;;7.95;6.75;;;;;;;8.36;69.19;100020.38;5077300;28;20075;-62
2022/02/03 16:52:02;;;;;;;9.77;8.18;;;;;;;8.12;69.52;100015.03;5073341;28;20064;-61
2022/02/03 16:54:29;;;;;;;10.10;8.73;;;;;;;8.16;69.76;100006.94;5073097;28;20390;-62
2022/02/03 16:57:01;;;;;;;10.88;8.75;;;;;;;8.10;70.01;100009.78;5073016;28;20052;-62
2022/02/03 16:59:35;;;;;;;13.57;9.80;;;;;;;8.14;70.19;100007.22;5053458;28;20056;-62
2022/02/03 17:02:04;;;;;;;10.57;9.18;;;;;;;7.97;71.15;100012.59;5053373;28;20406;-61
2022/02/03 17:04:33;;;;;;;14.05;9.57;;;;;;;8.03;70.92;100017.72;5053318;28;20060;-62
2022/02/03 17:07:00;;;;;;;10.70;9.57;;;;;;;8.00;71.39;100015.56;5052810;28;20053;-62
2022/02/03 17:09:27;;;;;;;13.93;10.43;;;;;;;7.91;71.82;100014.63;5053466;28;20052;-61
2022/02/03 17:11:55;;;;;;;15.43;11.10;;;;;;;7.92;72.33;100019.06;5055880;28;20048;-62
2022/02/03 17:14:22;;;;;;;15.15;12.02;;;;;;;7.81;73.16;100020.38;5073654;28;20059;-62
2022/02/03 17:16:49;;;;;;;17.40;12.98;;;;;;;7.69;73.48;100029.22;5073190;28;20053;-61
2022/02/03 17:19:19;;;;;;;15.13;12.57;;;;;;;7.77;73.83;100027.66;5061605;28;20067;-62
2022/02/03 17:21:48;;;;;;;14.43;12.65;;;;;;;7.81;74.44;100028.69;5053334;28;20064;-62
2022/02/03 17:24:15;;;;;;;16.42;13.88;;;;;;;7.82;74.71;100027.56;5053542;28;20469;-62
2022/02/03 17:26:53;;;;;;;17.33;13.77;;;;;;;7.77;75.47;100030.44;5063885;28;20077;-62
2022/02/03 17:29:29;;;;;;;17.83;13.68;;;;;;;7.70;74.70;100031.66;5073083;28;20496;-62
2022/02/03 17:31:58;;;;;;;16.80;12.95;;;;;;;7.83;74.41;100029.22;5072129;28;20064;-62
2022/02/03 17:54:51;;;;;;;17.23;12.73;;;;;;;7.73;75.71;100019.97;5086431;28;20520;-62
2022/02/03 18:11:00;;;;;;;14.80;12.73;;;;;;;7.32;75.49;100015.16;5062344;28;20051;-62
2022/02/03 18:19:44;;;;;;;13.00;11.30;;;;;;;7.45;75.17;100015.50;5079552;28;20056;-62
2022/02/03 18:30:29;;;;;;;15.10;12.63;;;;;;;7.58;74.02;100025.81;5044897;28;21360;-61
2022/02/03 18:36:08;;;;;;;16.92;14.20;;;;;;;7.42;74.92;100016.94;5035209;28;20097;-61
2022/02/03 18:52:40;;;;;;;19.42;15.07;;;;;;;7.55;75.38;100028.38;5048593;28;20056;-61
2022/02/03 18:55:16;;;;;;;19.95;14.85;;;;;;;7.61;74.24;100021.59;5049817;28;20048;-61
2022/02/03 18:57:58;;;;;;;17.63;14.70;;;;;;;7.60;75.04;100017.16;5051496;28;20045;-61
2022/02/03 19:00:48;;;;;;;17.73;13.48;;;;;;;7.72;74.78;100007.22;5052275;28;20045;-62
2022/02/03 19:09:26;;;;;;;19.10;14.60;;;;;;;7.70;74.19;100003.13;5049626;28;20056;-61
2022/02/03 19:23:33;;;;;;;18.10;14.38;;;;;;;7.90;74.86;99999.13;5056072;28;20060;-61
2022/02/03 19:26:33;;;;;;;17.50;14.30;;;;;;;7.65;75.34;100000.47;5054932;28;20498;-62
2022/02/03 19:57:13;;;;;;;24.10;18.30;;;;;;;7.47;76.52;99994.66;5060867;28;20130;-61